sensor_id;sensor_type;location;lat;lon;timestamp;pressure;altitude;pressure_sealevel;temperature
72054;BMP280;59918;51.280;7.950;2024-01-15T00:01:46;96550.44;;;1.00
72054;BMP280;59918;51.280;7.950;2024-01-15T00:04:11;96553.78;;;1.00
72054;BMP280;59918;51.280;7.950;2024-01-15T00:06:37;96553.78;;;1.00
72054;BMP280;59918;51.280;7.950;2024-01-15T00:09:02;96548.34;;;1.03
72054;BMP280;59918;51.280;7.950;2024-01-15T00:11:27;96544.88;;;1.04
72054;BMP280;59918;51.280;7.950;2024-01-15T00:13:53;96544.25;;;1.02
72054;BMP280;59918;51.280;7.950;2024-01-15T00:16:18;96524.94;;;1.01
72054;BMP280;59918;51.280;7.950;2024-01-15T00:18:43;96537.00;;;0.99
72054;BMP280;59918;51.280;7.950;2024-01-15T00:21:09;96525.94;;;1.00
72054;BMP280;59918;51.280;7.950;2024-01-15T00:23:35;96529.56;;;0.98
72054;BMP280;59918;51.280;7.950;2024-01-15T00:26:00;96532.09;;;0.98
72054;BMP280;59918;51.280;7.950;2024-01-15T00:28:25;96515.97;;;0.99
72054;BMP280;59918;51.280;7.950;2024-01-15T00:30:50;96521.97;;;0.98
72054;BMP280;59918;51.280;7.950;2024-01-15T00:33:16;96514.56;;;0.96
72054;BMP280;59918;51.280;7.950;2024-01-15T00:35:41;96513.78;;;0.96
72054;BMP280;59918;51.280;7.950;2024-01-15T00:38:06;96508.72;;;0.96
72054;BMP280;59918;51.280;7.950;2024-01-15T00:40:31;96507.94;;;0.95
72054;BMP280;59918;51.280;7.950;2024-01-15T00:42:57;96510.13;;;0.98
72054;BMP280;59918;51.280;7.950;2024-01-15T00:45:22;96510.13;;;0.98
72054;BMP280;59918;51.280;7.950;2024-01-15T00:47:48;96500.00;;;0.98
72054;BMP280;59918;51.280;7.950;2024-01-15T00:50:14;96510.38;;;1.03
72054;BMP280;59918;51.280;7.950;2024-01-15T00:52:39;96513.69;;;1.04
72054;BMP280;59918;51.280;7.950;2024-01-15T00:55:05;96507.50;;;1.06
72054;BMP280;59918;51.280;7.950;2024-01-15T00:57:30;96504.97;;;1.06
72054;BMP280;59918;51.280;7.950;2024-01-15T00:59:56;96506.53;;;1.07
72054;BMP280;59918;51.280;7.950;2024-01-15T01:02:21;96509.66;;;1.09
72054;BMP280;59918;51.280;7.950;2024-01-15T01:04:46;96505.38;;;1.09
72054;BMP280;59918;51.280;7.950;2024-01-15T01:07:11;96508.13;;;1.08
72054;BMP280;59918;51.280;7.950;2024-01-15T01:09:37;96516.31;;;1.10
72054;BMP280;59918;51.280;7.950;2024-01-15T01:12:02;96501.13;;;1.10
72054;BMP280;59918;51.280;7.950;2024-01-15T01:14:27;96500.16;;;1.11
72054;BMP280;59918;51.280;7.950;2024-01-15T01:16:53;96495.09;;;1.11
72054;BMP280;59918;51.280;7.950;2024-01-15T01:19:18;96494.91;;;1.12
72054;BMP280;59918;51.280;7.950;2024-01-15T01:21:43;96502.34;;;1.14
72054;BMP280;59918;51.280;7.950;2024-01-15T01:24:08;96489.69;;;1.14
72054;BMP280;59918;51.280;7.950;2024-01-15T01:26:34;96500.41;;;1.16
72054;BMP280;59918;51.280;7.950;2024-01-15T01:28:59;96501.38;;;1.15
72054;BMP280;59918;51.280;7.950;2024-01-15T01:31:24;96489.69;;;1.14
72054;BMP280;59918;51.280;7.950;2024-01-15T01:33:49;96494.53;;;1.15
72054;BMP280;59918;51.280;7.950;2024-01-15T01:36:15;96492.81;;;1.16
72054;BMP280;59918;51.280;7.950;2024-01-15T01:38:40;96496.13;;;1.16
72054;BMP280;59918;51.280;7.950;2024-01-15T01:41:06;96497.69;;;1.17
72054;BMP280;59918;51.280;7.950;2024-01-15T01:43:31;96488.38;;;1.18
72054;BMP280;59918;51.280;7.950;2024-01-15T01:45:57;96493.22;;;1.19
72054;BMP280;59918;51.280;7.950;2024-01-15T01:48:23;96489.59;;;1.22
72054;BMP280;59918;51.280;7.950;2024-01-15T01:50:49;96488.97;;;1.20
72054;BMP280;59918;51.280;7.950;2024-01-15T01:53:14;96499.28;;;1.18
72054;BMP280;59918;51.280;7.950;2024-01-15T01:55:40;96499.88;;;1.20
72054;BMP280;59918;51.280;7.950;2024-01-15T01:58:05;96501.63;;;1.20
72054;BMP280;59918;51.280;7.950;2024-01-15T02:00:32;96502.41;;;1.20
72054;BMP280;59918;51.280;7.950;2024-01-15T02:02:58;96496.97;;;1.23
72054;BMP280;59918;51.280;7.950;2024-01-15T02:05:23;96496.19;;;1.23
72054;BMP280;59918;51.280;7.950;2024-01-15T02:07:49;96497.78;;;1.24
72054;BMP280;59918;51.280;7.950;2024-01-15T02:10:14;96499.50;;;1.23
72054;BMP280;59918;51.280;7.950;2024-01-15T02:12:40;96493.06;;;1.21
72054;BMP280;59918;51.280;7.950;2024-01-15T02:15:05;96488.59;;;1.23
72054;BMP280;59918;51.280;7.950;2024-01-15T02:17:31;96494.28;;;1.25
72054;BMP280;59918;51.280;7.950;2024-01-15T02:19:56;96484.94;;;1.25
72054;BMP280;59918;51.280;7.950;2024-01-15T02:22:21;96491.56;;;1.26
72054;BMP280;59918;51.280;7.950;2024-01-15T02:24:46;96507.53;;;1.27
72054;BMP280;59918;51.280;7.950;2024-01-15T02:27:12;96483.81;;;1.28
72054;BMP280;59918;51.280;7.950;2024-01-15T02:29:40;96499.00;;;1.28
72054;BMP280;59918;51.280;7.950;2024-01-15T02:32:06;96498.03;;;1.29
72054;BMP280;59918;51.280;7.950;2024-01-15T02:34:34;96515.41;;;1.32
72054;BMP280;59918;51.280;7.950;2024-01-15T02:37:00;96499.59;;;1.30
72054;BMP280;59918;51.280;7.950;2024-01-15T02:39:25;96495.50;;;1.29
72054;BMP280;59918;51.280;7.950;2024-01-15T02:41:50;96499.78;;;1.28
72054;BMP280;59918;51.280;7.950;2024-01-15T02:44:15;96506.59;;;1.28
72054;BMP280;59918;51.280;7.950;2024-01-15T02:46:41;96510.06;;;1.27
72054;BMP280;59918;51.280;7.950;2024-01-15T02:49:06;96501.09;;;1.24
72054;BMP280;59918;51.280;7.950;2024-01-15T02:51:31;96501.63;;;1.20
72054;BMP280;59918;51.280;7.950;2024-01-15T02:53:56;96501.03;;;1.18
72054;BMP280;59918;51.280;7.950;2024-01-15T02:56:22;96505.13;;;1.19
72054;BMP280;59918;51.280;7.950;2024-01-15T02:58:47;96512.38;;;1.22
72054;BMP280;59918;51.280;7.950;2024-01-15T03:01:12;96508.88;;;1.23
72054;BMP280;59918;51.280;7.950;2024-01-15T03:03:39;96498.41;;;1.26
72054;BMP280;59918;51.280;7.950;2024-01-15T03:06:05;96505.81;;;1.27
72054;BMP280;59918;51.280;7.950;2024-01-15T03:08:30;96513.41;;;1.27
72054;BMP280;59918;51.280;7.950;2024-01-15T03:10:55;96511.66;;;1.28
72054;BMP280;59918;51.280;7.950;2024-01-15T03:13:21;96504.06;;;1.28
72054;BMP280;59918;51.280;7.950;2024-01-15T03:15:46;96504.41;;;1.25
72054;BMP280;59918;51.280;7.950;2024-01-15T03:18:11;96499.72;;;1.22
72054;BMP280;59918;51.280;7.950;2024-01-15T03:20:36;96506.69;;;1.20
72054;BMP280;59918;51.280;7.950;2024-01-15T03:23:02;96502.03;;;1.23
72054;BMP280;59918;51.280;7.950;2024-01-15T03:25:27;96511.84;;;1.26
72054;BMP280;59918;51.280;7.950;2024-01-15T03:27:52;96511.66;;;1.28
72054;BMP280;59918;51.280;7.950;2024-01-15T03:30:17;96516.72;;;1.28
72054;BMP280;59918;51.280;7.950;2024-01-15T03:32:43;96512.63;;;1.27
72054;BMP280;59918;51.280;7.950;2024-01-15T03:35:08;96512.63;;;1.27
72054;BMP280;59918;51.280;7.950;2024-01-15T03:37:33;96515.50;;;1.24
72054;BMP280;59918;51.280;7.950;2024-01-15T03:39:58;96507.91;;;1.24
72054;BMP280;59918;51.280;7.950;2024-01-15T03:42:24;96504.94;;;1.20
72054;BMP280;59918;51.280;7.950;2024-01-15T03:44:49;96509.22;;;1.20
72054;BMP280;59918;51.280;7.950;2024-01-15T03:47:14;96509.22;;;1.20
72054;BMP280;59918;51.280;7.950;2024-01-15T03:49:39;96502.59;;;1.19
72054;BMP280;59918;51.280;7.950;2024-01-15T03:52:05;96499.88;;;1.20
72054;BMP280;59918;51.280;7.950;2024-01-15T03:54:30;96495.75;;;1.19
72054;BMP280;59918;51.280;7.950;2024-01-15T03:56:55;96493.22;;;1.19
72054;BMP280;59918;51.280;7.950;2024-01-15T03:59:21;96482.50;;;1.17
72054;BMP280;59918;51.280;7.950;2024-01-15T04:01:49;96503.34;;;1.19
72054;BMP280;59918;51.280;7.950;2024-01-15T04:04:15;96486.78;;;1.17
72054;BMP280;59918;51.280;7.950;2024-01-15T04:06:40;96481.88;;;1.15
72054;BMP280;59918;51.280;7.950;2024-01-15T04:09:05;96473.53;;;1.15
72054;BMP280;59918;51.280;7.950;2024-01-15T04:11:31;96493.44;;;1.18
72054;BMP280;59918;51.280;7.950;2024-01-15T04:13:56;96494.38;;;1.17
72054;BMP280;59918;51.280;7.950;2024-01-15T04:16:21;96484.84;;;1.19
72054;BMP280;59918;51.280;7.950;2024-01-15T04:18:46;96497.34;;;1.20
72054;BMP280;59918;51.280;7.950;2024-01-15T04:21:12;96492.13;;;1.22
72054;BMP280;59918;51.280;7.950;2024-01-15T04:23:38;96487.66;;;1.24
72054;BMP280;59918;51.280;7.950;2024-01-15T04:26:04;96468.72;;;1.20
72054;BMP280;59918;51.280;7.950;2024-01-15T04:28:29;96479.47;;;1.22
72054;BMP280;59918;51.280;7.950;2024-01-15T04:30:54;96466.59;;;1.23
72054;BMP280;59918;51.280;7.950;2024-01-15T04:33:19;96459.81;;;1.24
72054;BMP280;59918;51.280;7.950;2024-01-15T04:35:45;96461.53;;;1.23
72054;BMP280;59918;51.280;7.950;2024-01-15T04:38:10;96461.53;;;1.23
72054;BMP280;59918;51.280;7.950;2024-01-15T04:40:35;96460.75;;;1.23
72054;BMP280;59918;51.280;7.950;2024-01-15T04:43:00;96455.53;;;1.24
72054;BMP280;59918;51.280;7.950;2024-01-15T04:45:26;96451.06;;;1.26
72054;BMP280;59918;51.280;7.950;2024-01-15T04:47:51;96457.88;;;1.26
72054;BMP280;59918;51.280;7.950;2024-01-15T04:50:16;96467.03;;;1.27
72054;BMP280;59918;51.280;7.950;2024-01-15T04:52:41;96460.25;;;1.27
72054;BMP280;59918;51.280;7.950;2024-01-15T04:55:07;96464.50;;;1.27
72054;BMP280;59918;51.280;7.950;2024-01-15T04:57:32;96448.69;;;1.25
72054;BMP280;59918;51.280;7.950;2024-01-15T04:59:57;96447.56;;;1.27
72054;BMP280;59918;51.280;7.950;2024-01-15T05:02:23;96442.31;;;1.29
72054;BMP280;59918;51.280;7.950;2024-01-15T05:04:48;96445.81;;;1.28
72054;BMP280;59918;51.280;7.950;2024-01-15T05:07:13;96438.41;;;1.26
72054;BMP280;59918;51.280;7.950;2024-01-15T05:09:38;96433.50;;;1.25
72054;BMP280;59918;51.280;7.950;2024-01-15T05:12:04;96437.44;;;1.27
72054;BMP280;59918;51.280;7.950;2024-01-15T05:14:29;96431.41;;;1.28
72054;BMP280;59918;51.280;7.950;2024-01-15T05:16:54;96418.31;;;1.25
72054;BMP280;59918;51.280;7.950;2024-01-15T05:19:21;96429.66;;;1.29
72054;BMP280;59918;51.280;7.950;2024-01-15T05:21:47;96422.66;;;1.31
72054;BMP280;59918;51.280;7.950;2024-01-15T05:24:12;96429.13;;;1.33
72054;BMP280;59918;51.280;7.950;2024-01-15T05:26:37;96431.84;;;1.32
72054;BMP280;59918;51.280;7.950;2024-01-15T05:29:05;96420.72;;;1.33
72054;BMP280;59918;51.280;7.950;2024-01-15T05:31:30;96422.50;;;1.32
72054;BMP280;59918;51.280;7.950;2024-01-15T05:33:55;96415.25;;;1.29
72054;BMP280;59918;51.280;7.950;2024-01-15T05:36:20;96423.25;;;1.33
72054;BMP280;59918;51.280;7.950;2024-01-15T05:38:46;96419.00;;;1.33
72054;BMP280;59918;51.280;7.950;2024-01-15T05:41:11;96422.31;;;1.34
72054;BMP280;59918;51.280;7.950;2024-01-15T05:43:36;96422.91;;;1.36
72054;BMP280;59918;51.280;7.950;2024-01-15T05:46:01;96418.81;;;1.35
72054;BMP280;59918;51.280;7.950;2024-01-15T05:48:27;96422.16;;;1.35
72054;BMP280;59918;51.280;7.950;2024-01-15T05:50:52;96420.22;;;1.37
72054;BMP280;59918;51.280;7.950;2024-01-15T05:53:17;96413.41;;;1.38
72054;BMP280;59918;51.280;7.950;2024-01-15T05:55:45;96422.53;;;1.39
72054;BMP280;59918;51.280;7.950;2024-01-15T05:58:10;96422.53;;;1.39
72054;BMP280;59918;51.280;7.950;2024-01-15T06:00:35;96416.72;;;1.38
72054;BMP280;59918;51.280;7.950;2024-01-15T06:03:00;96415.31;;;1.36
72054;BMP280;59918;51.280;7.950;2024-01-15T06:05:26;96414.56;;;1.35
72054;BMP280;59918;51.280;7.950;2024-01-15T06:07:51;96416.88;;;1.37
72054;BMP280;59918;51.280;7.950;2024-01-15T06:10:16;96406.94;;;1.35
72054;BMP280;59918;51.280;7.950;2024-01-15T06:12:43;96405.19;;;1.36
72054;BMP280;59918;51.280;7.950;2024-01-15T06:15:08;96410.25;;;1.36
72054;BMP280;59918;51.280;7.950;2024-01-15T06:17:34;96412.00;;;1.35
72054;BMP280;59918;51.280;7.950;2024-01-15T06:19:59;96410.59;;;1.33
72054;BMP280;59918;51.280;7.950;2024-01-15T06:22:24;96404.59;;;1.34
72054;BMP280;59918;51.280;7.950;2024-01-15T06:24:49;96412.19;;;1.34
72054;BMP280;59918;51.280;7.950;2024-01-15T06:27:15;96400.47;;;1.33
72054;BMP280;59918;51.280;7.950;2024-01-15T06:29:45;96405.19;;;1.36
72054;BMP280;59918;51.280;7.950;2024-01-15T06:32:10;96398.91;;;1.32
72054;BMP280;59918;51.280;7.950;2024-01-15T06:34:35;96397.00;;;1.34
72054;BMP280;59918;51.280;7.950;2024-01-15T06:37:00;96395.41;;;1.33
72054;BMP280;59918;51.280;7.950;2024-01-15T06:39:26;96398.91;;;1.32
72054;BMP280;59918;51.280;7.950;2024-01-15T06:41:51;96390.34;;;1.33
72054;BMP280;59918;51.280;7.950;2024-01-15T06:44:16;96394.63;;;1.32
72054;BMP280;59918;51.280;7.950;2024-01-15T06:46:42;96397.00;;;1.34
72054;BMP280;59918;51.280;7.950;2024-01-15T06:49:07;96404.22;;;1.37
72054;BMP280;59918;51.280;7.950;2024-01-15T06:51:33;96410.44;;;1.34
72054;BMP280;59918;51.280;7.950;2024-01-15T06:53:58;96399.69;;;1.32
72054;BMP280;59918;51.280;7.950;2024-01-15T06:56:23;96397.53;;;1.29
72054;BMP280;59918;51.280;7.950;2024-01-15T06:58:48;96397.53;;;1.29
72054;BMP280;59918;51.280;7.950;2024-01-15T07:01:14;96389.94;;;1.29
72054;BMP280;59918;51.280;7.950;2024-01-15T07:03:39;96397.53;;;1.29
72054;BMP280;59918;51.280;7.950;2024-01-15T07:06:04;96404.31;;;1.29
72054;BMP280;59918;51.280;7.950;2024-01-15T07:08:30;96398.31;;;1.30
72054;BMP280;59918;51.280;7.950;2024-01-15T07:10:57;96396.72;;;1.29
72054;BMP280;59918;51.280;7.950;2024-01-15T07:13:23;96400.84;;;1.30
72054;BMP280;59918;51.280;7.950;2024-01-15T07:15:48;96389.75;;;1.31
72054;BMP280;59918;51.280;7.950;2024-01-15T07:18:15;96398.31;;;1.30
72054;BMP280;59918;51.280;7.950;2024-01-15T07:20:41;96408.63;;;1.28
72054;BMP280;59918;51.280;7.950;2024-01-15T07:23:06;96400.25;;;1.28
72054;BMP280;59918;51.280;7.950;2024-01-15T07:25:31;96408.63;;;1.28
72054;BMP280;59918;51.280;7.950;2024-01-15T07:27:56;96409.22;;;1.30
72054;BMP280;59918;51.280;7.950;2024-01-15T07:30:22;96410.19;;;1.29
72054;BMP280;59918;51.280;7.950;2024-01-15T07:32:47;96404.16;;;1.30
72054;BMP280;59918;51.280;7.950;2024-01-15T07:35:14;96404.00;;;1.32
72054;BMP280;59918;51.280;7.950;2024-01-15T07:37:39;96407.13;;;1.34
72054;BMP280;59918;51.280;7.950;2024-01-15T07:40:05;96402.06;;;1.34
72054;BMP280;59918;51.280;7.950;2024-01-15T07:42:31;96404.59;;;1.34
72054;BMP280;59918;51.280;7.950;2024-01-15T07:44:56;96404.59;;;1.34
72054;BMP280;59918;51.280;7.950;2024-01-15T07:47:21;96400.31;;;1.34
72054;BMP280;59918;51.280;7.950;2024-01-15T07:49:46;96406.75;;;1.37
72054;BMP280;59918;51.280;7.950;2024-01-15T07:52:12;96407.34;;;1.39
72054;BMP280;59918;51.280;7.950;2024-01-15T07:54:37;96402.28;;;1.39
72054;BMP280;59918;51.280;7.950;2024-01-15T07:57:02;96400.56;;;1.39
72054;BMP280;59918;51.280;7.950;2024-01-15T07:59:28;96396.44;;;1.38
72054;BMP280;59918;51.280;7.950;2024-01-15T08:01:53;96398.44;;;1.43
72054;BMP280;59918;51.280;7.950;2024-01-15T08:04:19;96399.03;;;1.44
72054;BMP280;59918;51.280;7.950;2024-01-15T08:06:45;96402.53;;;1.44
72054;BMP280;59918;51.280;7.950;2024-01-15T08:09:10;96404.09;;;1.44
72054;BMP280;59918;51.280;7.950;2024-01-15T08:11:36;96404.09;;;1.44
72054;BMP280;59918;51.280;7.950;2024-01-15T08:14:01;96402.00;;;1.48
72054;BMP280;59918;51.280;7.950;2024-01-15T08:16:26;96402.59;;;1.50
72054;BMP280;59918;51.280;7.950;2024-01-15T08:18:51;96401.09;;;1.55
72054;BMP280;59918;51.280;7.950;2024-01-15T08:21:19;96395.13;;;1.63
72054;BMP280;59918;51.280;7.950;2024-01-15T08:23:44;96385.03;;;1.69
72054;BMP280;59918;51.280;7.950;2024-01-15T08:26:10;96386.25;;;1.73
72054;BMP280;59918;51.280;7.950;2024-01-15T08:28:36;96388.63;;;1.81
72054;BMP280;59918;51.280;7.950;2024-01-15T08:31:01;96383.00;;;1.85
72054;BMP280;59918;51.280;7.950;2024-01-15T08:33:26;96371.06;;;1.80
72054;BMP280;59918;51.280;7.950;2024-01-15T08:35:51;96377.31;;;1.77
72054;BMP280;59918;51.280;7.950;2024-01-15T08:38:18;96371.97;;;1.72
72054;BMP280;59918;51.280;7.950;2024-01-15T08:40:43;96373.75;;;1.72
72054;BMP280;59918;51.280;7.950;2024-01-15T08:43:11;96367.72;;;1.73
72054;BMP280;59918;51.280;7.950;2024-01-15T08:45:36;96375.53;;;1.78
72054;BMP280;59918;51.280;7.950;2024-01-15T08:48:02;96379.84;;;1.77
72054;BMP280;59918;51.280;7.950;2024-01-15T08:50:27;96373.00;;;1.78
72054;BMP280;59918;51.280;7.950;2024-01-15T08:52:52;96368.53;;;1.80
72054;BMP280;59918;51.280;7.950;2024-01-15T08:55:20;96370.66;;;1.76
72054;BMP280;59918;51.280;7.950;2024-01-15T08:57:46;96381.59;;;1.77
72054;BMP280;59918;51.280;7.950;2024-01-15T09:00:12;96373.19;;;1.76
72054;BMP280;59918;51.280;7.950;2024-01-15T09:02:37;96383.31;;;1.76
72054;BMP280;59918;51.280;7.950;2024-01-15T09:05:02;96374.75;;;1.77
72054;BMP280;59918;51.280;7.950;2024-01-15T09:07:28;96377.75;;;1.87
72054;BMP280;59918;51.280;7.950;2024-01-15T09:09:53;96378.78;;;1.92
72054;BMP280;59918;51.280;7.950;2024-01-15T09:12:19;96372.94;;;1.92
72054;BMP280;59918;51.280;7.950;2024-01-15T09:14:44;96382.09;;;1.93
72054;BMP280;59918;51.280;7.950;2024-01-15T09:17:09;96373.53;;;1.94
72054;BMP280;59918;51.280;7.950;2024-01-15T09:19:35;96381.91;;;1.94
72054;BMP280;59918;51.280;7.950;2024-01-15T09:22:00;96375.09;;;1.95
72054;BMP280;59918;51.280;7.950;2024-01-15T09:24:25;96365.56;;;1.97
72054;BMP280;59918;51.280;7.950;2024-01-15T09:26:51;96373.41;;;2.02
72054;BMP280;59918;51.280;7.950;2024-01-15T09:29:16;96377.13;;;2.06
72054;BMP280;59918;51.280;7.950;2024-01-15T09:31:41;96380.03;;;2.03
72054;BMP280;59918;51.280;7.950;2024-01-15T09:34:06;96378.22;;;1.97
72054;BMP280;59918;51.280;7.950;2024-01-15T09:36:32;96375.69;;;1.97
72054;BMP280;59918;51.280;7.950;2024-01-15T09:38:57;96370.44;;;1.98
72054;BMP280;59918;51.280;7.950;2024-01-15T09:41:23;96378.81;;;1.99
72054;BMP280;59918;51.280;7.950;2024-01-15T09:43:48;96375.09;;;1.95
72054;BMP280;59918;51.280;7.950;2024-01-15T09:46:14;96380.94;;;1.95
72054;BMP280;59918;51.280;7.950;2024-01-15T09:48:40;96379.22;;;1.96
72054;BMP280;59918;51.280;7.950;2024-01-15T09:51:06;96382.69;;;1.95
72054;BMP280;59918;51.280;7.950;2024-01-15T09:53:32;96380.41;;;2.00
72054;BMP280;59918;51.280;7.950;2024-01-15T09:55:58;96382.75;;;2.01
72054;BMP280;59918;51.280;7.950;2024-01-15T09:58:23;96388.81;;;2.07
72054;BMP280;59918;51.280;7.950;2024-01-15T10:00:49;96387.06;;;2.07
72054;BMP280;59918;51.280;7.950;2024-01-15T10:03:14;96377.16;;;2.12
72054;BMP280;59918;51.280;7.950;2024-01-15T10:05:39;96386.75;;;2.17
72054;BMP280;59918;51.280;7.950;2024-01-15T10:08:05;96387.31;;;2.12
72054;BMP280;59918;51.280;7.950;2024-01-15T10:10:31;96393.53;;;2.10
72054;BMP280;59918;51.280;7.950;2024-01-15T10:12:58;96384.81;;;2.18
72054;BMP280;59918;51.280;7.950;2024-01-15T10:15:23;96383.72;;;2.27
72054;BMP280;59918;51.280;7.950;2024-01-15T10:17:50;96384.38;;;2.42
72054;BMP280;59918;51.280;7.950;2024-01-15T10:20:16;96387.72;;;2.49
72054;BMP280;59918;51.280;7.950;2024-01-15T10:22:42;96385.41;;;2.54
72054;BMP280;59918;51.280;7.950;2024-01-15T10:25:10;96383.47;;;2.56
72054;BMP280;59918;51.280;7.950;2024-01-15T10:27:35;96389.34;;;2.63
72054;BMP280;59918;51.280;7.950;2024-01-15T10:30:00;96387.25;;;2.66
72054;BMP280;59918;51.280;7.950;2024-01-15T10:32:26;96378.06;;;2.72
72054;BMP280;59918;51.280;7.950;2024-01-15T10:34:52;96377.91;;;2.80
72054;BMP280;59918;51.280;7.950;2024-01-15T10:37:18;96382.22;;;2.86
72054;BMP280;59918;51.280;7.950;2024-01-15T10:39:43;96382.03;;;2.87
72054;BMP280;59918;51.280;7.950;2024-01-15T10:42:08;96381.84;;;2.89
72054;BMP280;59918;51.280;7.950;2024-01-15T10:44:33;96385.94;;;2.89
72054;BMP280;59918;51.280;7.950;2024-01-15T10:46:59;96388.28;;;2.85
72054;BMP280;59918;51.280;7.950;2024-01-15T10:49:24;96379.84;;;2.78
72054;BMP280;59918;51.280;7.950;2024-01-15T10:51:50;96370.69;;;2.83
72054;BMP280;59918;51.280;7.950;2024-01-15T10:54:17;96374.25;;;2.95
72054;BMP280;59918;51.280;7.950;2024-01-15T10:56:44;96373.06;;;2.91
72054;BMP280;59918;51.280;7.950;2024-01-15T10:59:11;96375.84;;;3.02
72054;BMP280;59918;51.280;7.950;2024-01-15T11:01:38;96386.16;;;2.94
72054;BMP280;59918;51.280;7.950;2024-01-15T11:04:03;96384.31;;;2.76
72054;BMP280;59918;51.280;7.950;2024-01-15T11:06:44;96390.13;;;2.63
72054;BMP280;59918;51.280;7.950;2024-01-15T11:09:10;96379.78;;;2.58
72054;BMP280;59918;51.280;7.950;2024-01-15T11:11:45;96385.06;;;2.63
72054;BMP280;59918;51.280;7.950;2024-01-15T11:14:13;96380.28;;;2.88
72054;BMP280;59918;51.280;7.950;2024-01-15T11:16:57;96380.75;;;3.04
72054;BMP280;59918;51.280;7.950;2024-01-15T11:19:22;96383.66;;;3.07
72054;BMP280;59918;51.280;7.950;2024-01-15T11:21:48;96377.25;;;3.18
72054;BMP280;59918;51.280;7.950;2024-01-15T11:24:36;96381.56;;;3.30
72054;BMP280;59918;51.280;7.950;2024-01-15T11:27:02;96384.13;;;3.24
72054;BMP280;59918;51.280;7.950;2024-01-15T11:34:21;96387.59;;;3.10
72054;BMP280;59918;51.280;7.950;2024-01-15T11:37:06;96392.84;;;3.02
72054;BMP280;59918;51.280;7.950;2024-01-15T11:41:58;96383.63;;;2.88
72054;BMP280;59918;51.280;7.950;2024-01-15T11:44:24;96378.91;;;2.85
72054;BMP280;59918;51.280;7.950;2024-01-15T11:52:21;96383.09;;;3.12
72054;BMP280;59918;51.280;7.950;2024-01-15T11:55:10;96386.03;;;3.15
72054;BMP280;59918;51.280;7.950;2024-01-15T12:00:05;96392.63;;;3.03
72054;BMP280;59918;51.280;7.950;2024-01-15T12:02:31;96383.47;;;3.15
72054;BMP280;59918;51.280;7.950;2024-01-15T12:04:56;96384.31;;;3.28
72054;BMP280;59918;51.280;7.950;2024-01-15T12:07:21;96388.41;;;3.23
72054;BMP280;59918;51.280;7.950;2024-01-15T12:09:47;96393.63;;;3.15
72054;BMP280;59918;51.280;7.950;2024-01-15T12:15:01;96386.00;;;3.09
72054;BMP280;59918;51.280;7.950;2024-01-15T12:17:26;96391.84;;;2.96
72054;BMP280;59918;51.280;7.950;2024-01-15T12:19:51;96385.56;;;2.92
72054;BMP280;59918;51.280;7.950;2024-01-15T12:22:17;96381.28;;;2.93
72054;BMP280;59918;51.280;7.950;2024-01-15T12:24:42;96390.44;;;2.88
72054;BMP280;59918;51.280;7.950;2024-01-15T12:27:08;96382.63;;;2.89
72054;BMP280;59918;51.280;7.950;2024-01-15T12:29:33;96386.31;;;2.80
72054;BMP280;59918;51.280;7.950;2024-01-15T12:31:58;96389.63;;;2.74
72054;BMP280;59918;51.280;7.950;2024-01-15T12:34:29;96388.47;;;2.83
72054;BMP280;59918;51.280;7.950;2024-01-15T12:36:57;96380.84;;;2.77
72054;BMP280;59918;51.280;7.950;2024-01-15T12:39:22;96398.09;;;2.94
72054;BMP280;59918;51.280;7.950;2024-01-15T12:41:47;96394.56;;;3.01
72054;BMP280;59918;51.280;7.950;2024-01-15T12:44:13;96394.22;;;3.04
72054;BMP280;59918;51.280;7.950;2024-01-15T12:46:38;96401.84;;;3.04
72054;BMP280;59918;51.280;7.950;2024-01-15T12:49:04;96399.09;;;3.06
72054;BMP280;59918;51.280;7.950;2024-01-15T12:51:29;96395.22;;;3.10
72054;BMP280;59918;51.280;7.950;2024-01-15T12:53:54;96396.34;;;3.07
72054;BMP280;59918;51.280;7.950;2024-01-15T12:56:19;96403.97;;;3.01
72054;BMP280;59918;51.280;7.950;2024-01-15T12:58:45;96393.34;;;2.85
72054;BMP280;59918;51.280;7.950;2024-01-15T13:01:10;96404.44;;;2.71
72054;BMP280;59918;51.280;7.950;2024-01-15T13:03:36;96407.31;;;2.68
72054;BMP280;59918;51.280;7.950;2024-01-15T13:06:01;96406.38;;;2.69
72054;BMP280;59918;51.280;7.950;2024-01-15T13:08:26;96410.03;;;2.60
72054;BMP280;59918;51.280;7.950;2024-01-15T13:10:52;96414.50;;;2.58
72054;BMP280;59918;51.280;7.950;2024-01-15T13:13:17;96413.09;;;2.49
72054;BMP280;59918;51.280;7.950;2024-01-15T13:15:45;96407.63;;;2.46
72054;BMP280;59918;51.280;7.950;2024-01-15T13:18:10;96405.50;;;2.49
72054;BMP280;59918;51.280;7.950;2024-01-15T13:20:36;96400.63;;;2.54
72054;BMP280;59918;51.280;7.950;2024-01-15T13:23:01;96403.75;;;2.56
72054;BMP280;59918;51.280;7.950;2024-01-15T13:25:26;96388.78;;;2.61
72054;BMP280;59918;51.280;7.950;2024-01-15T13:27:51;96418.06;;;2.63
72054;BMP280;59918;51.280;7.950;2024-01-15T13:30:17;96400.69;;;2.60
72054;BMP280;59918;51.280;7.950;2024-01-15T13:32:42;96405.69;;;2.54
72054;BMP280;59918;51.280;7.950;2024-01-15T13:35:08;96417.03;;;2.58
72054;BMP280;59918;51.280;7.950;2024-01-15T13:37:33;96425.38;;;2.46
72054;BMP280;59918;51.280;7.950;2024-01-15T13:39:58;96428.22;;;2.36
72054;BMP280;59918;51.280;7.950;2024-01-15T13:42:23;96433.03;;;2.25
72054;BMP280;59918;51.280;7.950;2024-01-15T13:44:49;96425.25;;;2.26
72054;BMP280;59918;51.280;7.950;2024-01-15T13:47:14;96429.97;;;2.29
72054;BMP280;59918;51.280;7.950;2024-01-15T13:49:39;96447.28;;;2.26
72054;BMP280;59918;51.280;7.950;2024-01-15T13:52:05;96441.19;;;2.20
72054;BMP280;59918;51.280;7.950;2024-01-15T13:54:30;96437.56;;;2.29
72054;BMP280;59918;51.280;7.950;2024-01-15T13:56:56;96421.03;;;2.40
72054;BMP280;59918;51.280;7.950;2024-01-15T13:59:21;96419.28;;;2.40
72054;BMP280;59918;51.280;7.950;2024-01-15T14:01:47;96431.53;;;2.37
72054;BMP280;59918;51.280;7.950;2024-01-15T14:04:12;96437.03;;;2.40
72054;BMP280;59918;51.280;7.950;2024-01-15T14:06:37;96431.19;;;2.40
72054;BMP280;59918;51.280;7.950;2024-01-15T14:09:03;96431.50;;;2.30
72054;BMP280;59918;51.280;7.950;2024-01-15T14:11:28;96422.66;;;2.20
72054;BMP280;59918;51.280;7.950;2024-01-15T14:13:53;96437.47;;;2.17
72054;BMP280;59918;51.280;7.950;2024-01-15T14:16:19;96448.16;;;2.12
72054;BMP280;59918;51.280;7.950;2024-01-15T14:18:44;96446.19;;;2.08
72054;BMP280;59918;51.280;7.950;2024-01-15T14:21:09;96446.38;;;2.06
72054;BMP280;59918;51.280;7.950;2024-01-15T14:23:35;96450.84;;;2.04
72054;BMP280;59918;51.280;7.950;2024-01-15T14:26:00;96452.94;;;2.01
72054;BMP280;59918;51.280;7.950;2024-01-15T14:28:25;96450.97;;;1.96
72054;BMP280;59918;51.280;7.950;2024-01-15T14:30:50;96456.38;;;1.93